sensor_id;sensor_type;location;lat;lon;timestamp;temperature;humidity
44215;DHT22;29884;47.450;19.124;2023-03-26T00:01:27;8.90;99.90
44215;DHT22;29884;47.450;19.124;2023-03-26T00:03:54;8.90;99.90
44215;DHT22;29884;47.450;19.124;2023-03-26T00:06:34;8.90;99.90
44215;DHT22;29884;47.450;19.124;2023-03-26T00:09:02;8.80;99.90
44215;DHT22;29884;47.450;19.124;2023-03-26T00:11:28;8.70;99.90
44215;DHT22;29884;47.450;19.124;2023-03-26T00:13:56;8.70;99.90
44215;DHT22;29884;47.450;19.124;2023-03-26T00:16:23;8.60;99.90
44215;DHT22;29884;47.450;19.124;2023-03-26T00:18:49;8.50;99.90
44215;DHT22;29884;47.450;19.124;2023-03-26T00:21:18;8.50;99.90
44215;DHT22;29884;47.450;19.124;2023-03-26T00:23:47;8.40;99.90
44215;DHT22;29884;47.450;19.124;2023-03-26T00:26:14;8.40;99.90
44215;DHT22;29884;47.450;19.124;2023-03-26T00:28:42;8.40;99.90
44215;DHT22;29884;47.450;19.124;2023-03-26T00:31:13;8.40;99.90
44215;DHT22;29884;47.450;19.124;2023-03-26T00:33:40;8.60;99.90
44215;DHT22;29884;47.450;19.124;2023-03-26T00:36:09;8.60;99.90
44215;DHT22;29884;47.450;19.124;2023-03-26T00:38:36;8.70;99.90
44215;DHT22;29884;47.450;19.124;2023-03-26T00:41:05;8.80;99.90
44215;DHT22;29884;47.450;19.124;2023-03-26T00:43:33;8.70;99.90
44215;DHT22;29884;47.450;19.124;2023-03-26T00:46:00;8.80;99.90
44215;DHT22;29884;47.450;19.124;2023-03-26T00:48:26;8.70;99.90
44215;DHT22;29884;47.450;19.124;2023-03-26T00:50:54;8.70;99.90
44215;DHT22;29884;47.450;19.124;2023-03-26T00:53:21;8.70;99.90
44215;DHT22;29884;47.450;19.124;2023-03-26T00:55:47;8.70;99.90
44215;DHT22;29884;47.450;19.124;2023-03-26T00:58:14;8.60;99.90
44215;DHT22;29884;47.450;19.124;2023-03-26T01:00:50;8.60;99.90
44215;DHT22;29884;47.450;19.124;2023-03-26T01:03:16;8.60;99.90
44215;DHT22;29884;47.450;19.124;2023-03-26T01:05:57;8.60;99.90
44215;DHT22;29884;47.450;19.124;2023-03-26T01:08:33;8.60;99.90
44215;DHT22;29884;47.450;19.124;2023-03-26T01:11:03;8.60;99.90
44215;DHT22;29884;47.450;19.124;2023-03-26T01:13:35;8.60;99.90
44215;DHT22;29884;47.450;19.124;2023-03-26T01:16:02;8.60;99.90
44215;DHT22;29884;47.450;19.124;2023-03-26T01:18:31;8.60;99.90
44215;DHT22;29884;47.450;19.124;2023-03-26T01:21:00;8.60;99.90
44215;DHT22;29884;47.450;19.124;2023-03-26T01:23:43;8.60;99.90
44215;DHT22;29884;47.450;19.124;2023-03-26T01:28:55;8.60;99.90
44215;DHT22;29884;47.450;19.124;2023-03-26T01:34:29;8.60;99.90
44215;DHT22;29884;47.450;19.124;2023-03-26T01:39:57;8.60;99.90
44215;DHT22;29884;47.450;19.124;2023-03-26T01:42:40;8.70;99.90
44215;DHT22;29884;47.450;19.124;2023-03-26T01:45:17;8.60;99.90
44215;DHT22;29884;47.450;19.124;2023-03-26T01:47:46;8.60;99.90
44215;DHT22;29884;47.450;19.124;2023-03-26T01:50:12;8.50;99.90
44215;DHT22;29884;47.450;19.124;2023-03-26T01:52:38;8.50;99.90
44215;DHT22;29884;47.450;19.124;2023-03-26T01:55:04;8.40;99.90
44215;DHT22;29884;47.450;19.124;2023-03-26T01:57:58;8.40;99.90
44215;DHT22;29884;47.450;19.124;2023-03-26T02:00:30;8.40;99.90
44215;DHT22;29884;47.450;19.124;2023-03-26T02:08:37;8.20;99.90
44215;DHT22;29884;47.450;19.124;2023-03-26T02:11:10;8.10;99.90
44215;DHT22;29884;47.450;19.124;2023-03-26T02:13:39;8.10;99.90
44215;DHT22;29884;47.450;19.124;2023-03-26T02:16:07;8.10;99.90
44215;DHT22;29884;47.450;19.124;2023-03-26T02:18:34;8.00;99.90
44215;DHT22;29884;47.450;19.124;2023-03-26T02:21:11;7.90;99.90
44215;DHT22;29884;47.450;19.124;2023-03-26T02:23:39;7.90;99.90
44215;DHT22;29884;47.450;19.124;2023-03-26T02:26:07;7.80;99.90
44215;DHT22;29884;47.450;19.124;2023-03-26T02:28:33;7.70;99.90
44215;DHT22;29884;47.450;19.124;2023-03-26T02:30:59;7.70;99.90
44215;DHT22;29884;47.450;19.124;2023-03-26T02:33:27;7.60;99.90
44215;DHT22;29884;47.450;19.124;2023-03-26T02:35:54;7.60;99.90
44215;DHT22;29884;47.450;19.124;2023-03-26T02:38:24;7.50;99.90
44215;DHT22;29884;47.450;19.124;2023-03-26T02:40:52;7.50;99.90
44215;DHT22;29884;47.450;19.124;2023-03-26T02:43:18;7.40;99.90
44215;DHT22;29884;47.450;19.124;2023-03-26T02:45:44;7.40;99.90
44215;DHT22;29884;47.450;19.124;2023-03-26T02:48:11;7.30;99.90
44215;DHT22;29884;47.450;19.124;2023-03-26T02:50:37;7.30;99.90
44215;DHT22;29884;47.450;19.124;2023-03-26T02:53:03;7.20;99.90
44215;DHT22;29884;47.450;19.124;2023-03-26T02:55:30;7.20;99.90
44215;DHT22;29884;47.450;19.124;2023-03-26T02:57:56;7.20;99.90
44215;DHT22;29884;47.450;19.124;2023-03-26T03:00:22;7.10;99.90
44215;DHT22;29884;47.450;19.124;2023-03-26T03:02:48;7.00;99.90
44215;DHT22;29884;47.450;19.124;2023-03-26T03:05:15;6.90;99.90
44215;DHT22;29884;47.450;19.124;2023-03-26T03:07:42;6.90;99.90
44215;DHT22;29884;47.450;19.124;2023-03-26T03:10:12;6.90;99.90
44215;DHT22;29884;47.450;19.124;2023-03-26T03:12:39;6.90;99.90
44215;DHT22;29884;47.450;19.124;2023-03-26T03:15:06;6.90;99.90
44215;DHT22;29884;47.450;19.124;2023-03-26T03:17:32;6.80;99.90
44215;DHT22;29884;47.450;19.124;2023-03-26T03:19:57;6.80;99.90
44215;DHT22;29884;47.450;19.124;2023-03-26T03:22:23;6.70;99.90
44215;DHT22;29884;47.450;19.124;2023-03-26T03:24:49;6.70;99.90
44215;DHT22;29884;47.450;19.124;2023-03-26T03:27:17;6.60;99.90
44215;DHT22;29884;47.450;19.124;2023-03-26T03:29:44;6.60;99.90
44215;DHT22;29884;47.450;19.124;2023-03-26T03:32:11;6.50;99.90
44215;DHT22;29884;47.450;19.124;2023-03-26T03:34:37;6.50;99.90
44215;DHT22;29884;47.450;19.124;2023-03-26T03:37:03;6.50;99.90
44215;DHT22;29884;47.450;19.124;2023-03-26T03:39:29;6.40;99.90
44215;DHT22;29884;47.450;19.124;2023-03-26T03:41:55;6.40;99.90
44215;DHT22;29884;47.450;19.124;2023-03-26T03:44:21;6.30;99.90
44215;DHT22;29884;47.450;19.124;2023-03-26T03:46:47;6.20;99.90
44215;DHT22;29884;47.450;19.124;2023-03-26T03:49:18;6.30;99.90
44215;DHT22;29884;47.450;19.124;2023-03-26T03:51:44;6.30;99.90
44215;DHT22;29884;47.450;19.124;2023-03-26T03:54:09;6.30;99.90
44215;DHT22;29884;47.450;19.124;2023-03-26T03:56:35;6.30;99.90
44215;DHT22;29884;47.450;19.124;2023-03-26T03:59:02;6.40;99.90
44215;DHT22;29884;47.450;19.124;2023-03-26T04:01:28;6.40;99.90
44215;DHT22;29884;47.450;19.124;2023-03-26T04:03:55;6.50;99.90
44215;DHT22;29884;47.450;19.124;2023-03-26T04:06:21;6.40;99.90
44215;DHT22;29884;47.450;19.124;2023-03-26T04:08:50;6.40;99.90
44215;DHT22;29884;47.450;19.124;2023-03-26T04:11:16;6.40;99.90
44215;DHT22;29884;47.450;19.124;2023-03-26T04:13:42;6.40;99.90
44215;DHT22;29884;47.450;19.124;2023-03-26T04:16:08;6.40;99.90
44215;DHT22;29884;47.450;19.124;2023-03-26T04:18:35;6.50;99.90
44215;DHT22;29884;47.450;19.124;2023-03-26T04:21:02;6.50;99.90
44215;DHT22;29884;47.450;19.124;2023-03-26T04:23:30;6.50;99.90
44215;DHT22;29884;47.450;19.124;2023-03-26T04:25:57;6.40;99.90
44215;DHT22;29884;47.450;19.124;2023-03-26T04:28:40;6.40;99.90
44215;DHT22;29884;47.450;19.124;2023-03-26T04:31:09;6.40;99.90
44215;DHT22;29884;47.450;19.124;2023-03-26T04:33:37;6.30;99.90
44215;DHT22;29884;47.450;19.124;2023-03-26T04:36:04;6.30;99.90
44215;DHT22;29884;47.450;19.124;2023-03-26T04:38:42;6.30;99.90
44215;DHT22;29884;47.450;19.124;2023-03-26T04:41:11;6.20;99.90
44215;DHT22;29884;47.450;19.124;2023-03-26T04:43:37;6.20;99.90
44215;DHT22;29884;47.450;19.124;2023-03-26T04:46:07;6.20;99.90
44215;DHT22;29884;47.450;19.124;2023-03-26T04:48:35;6.10;99.90
44215;DHT22;29884;47.450;19.124;2023-03-26T04:51:03;6.10;99.90
44215;DHT22;29884;47.450;19.124;2023-03-26T04:53:31;6.10;99.90
44215;DHT22;29884;47.450;19.124;2023-03-26T04:56:08;6.10;99.90
44215;DHT22;29884;47.450;19.124;2023-03-26T04:58:37;6.10;99.90
44215;DHT22;29884;47.450;19.124;2023-03-26T05:01:04;6.10;99.90
44215;DHT22;29884;47.450;19.124;2023-03-26T05:03:31;6.10;99.90
44215;DHT22;29884;47.450;19.124;2023-03-26T05:05:59;6.20;99.90
44215;DHT22;29884;47.450;19.124;2023-03-26T05:08:25;6.30;99.90
44215;DHT22;29884;47.450;19.124;2023-03-26T05:10:54;6.40;99.90
44215;DHT22;29884;47.450;19.124;2023-03-26T05:13:21;6.60;99.90
44215;DHT22;29884;47.450;19.124;2023-03-26T05:15:47;6.80;99.90
44215;DHT22;29884;47.450;19.124;2023-03-26T05:18:13;7.10;99.90
44215;DHT22;29884;47.450;19.124;2023-03-26T05:20:39;7.30;99.90
44215;DHT22;29884;47.450;19.124;2023-03-26T05:23:05;7.60;99.90
44215;DHT22;29884;47.450;19.124;2023-03-26T05:25:32;8.20;99.90
44215;DHT22;29884;47.450;19.124;2023-03-26T05:27:59;8.70;99.90
44215;DHT22;29884;47.450;19.124;2023-03-26T05:30:25;8.90;99.90
44215;DHT22;29884;47.450;19.124;2023-03-26T05:32:51;9.10;99.90
44215;DHT22;29884;47.450;19.124;2023-03-26T05:35:17;9.20;99.90
44215;DHT22;29884;47.450;19.124;2023-03-26T05:37:43;9.10;99.90
44215;DHT22;29884;47.450;19.124;2023-03-26T05:40:11;9.10;99.90
44215;DHT22;29884;47.450;19.124;2023-03-26T05:42:39;9.20;99.90
44215;DHT22;29884;47.450;19.124;2023-03-26T05:45:09;9.30;99.90
44215;DHT22;29884;47.450;19.124;2023-03-26T05:47:36;9.50;99.90
44215;DHT22;29884;47.450;19.124;2023-03-26T05:50:02;9.50;99.90
44215;DHT22;29884;47.450;19.124;2023-03-26T05:52:28;9.60;99.90
44215;DHT22;29884;47.450;19.124;2023-03-26T05:54:54;9.90;99.90
44215;DHT22;29884;47.450;19.124;2023-03-26T05:57:20;10.00;99.90
44215;DHT22;29884;47.450;19.124;2023-03-26T05:59:47;10.20;99.90
44215;DHT22;29884;47.450;19.124;2023-03-26T06:02:12;10.30;99.90
44215;DHT22;29884;47.450;19.124;2023-03-26T06:04:38;10.50;99.90
44215;DHT22;29884;47.450;19.124;2023-03-26T06:07:06;10.60;99.90
44215;DHT22;29884;47.450;19.124;2023-03-26T06:09:36;10.70;99.90
44215;DHT22;29884;47.450;19.124;2023-03-26T06:12:06;10.80;99.90
44215;DHT22;29884;47.450;19.124;2023-03-26T06:14:32;10.80;99.90
44215;DHT22;29884;47.450;19.124;2023-03-26T06:16:58;10.70;99.90
44215;DHT22;29884;47.450;19.124;2023-03-26T06:19:24;10.80;99.90
44215;DHT22;29884;47.450;19.124;2023-03-26T06:21:50;10.60;99.90
44215;DHT22;29884;47.450;19.124;2023-03-26T06:24:15;10.60;99.90
44215;DHT22;29884;47.450;19.124;2023-03-26T06:26:42;10.70;99.90
44215;DHT22;29884;47.450;19.124;2023-03-26T06:29:08;10.70;99.90
44215;DHT22;29884;47.450;19.124;2023-03-26T06:31:34;10.80;99.90
44215;DHT22;29884;47.450;19.124;2023-03-26T06:34:00;10.70;99.90
44215;DHT22;29884;47.450;19.124;2023-03-26T06:36:25;10.80;99.90
44215;DHT22;29884;47.450;19.124;2023-03-26T06:38:51;10.80;99.90
44215;DHT22;29884;47.450;19.124;2023-03-26T06:41:17;10.70;99.90
44215;DHT22;29884;47.450;19.124;2023-03-26T06:43:43;10.80;99.90
44215;DHT22;29884;47.450;19.124;2023-03-26T06:46:09;10.90;99.90
44215;DHT22;29884;47.450;19.124;2023-03-26T06:48:35;11.00;99.90
44215;DHT22;29884;47.450;19.124;2023-03-26T06:51:01;11.20;99.90
44215;DHT22;29884;47.450;19.124;2023-03-26T06:53:27;11.40;99.90
44215;DHT22;29884;47.450;19.124;2023-03-26T06:55:53;11.60;99.90
44215;DHT22;29884;47.450;19.124;2023-03-26T06:58:19;11.70;99.90
44215;DHT22;29884;47.450;19.124;2023-03-26T07:00:46;12.00;99.90
44215;DHT22;29884;47.450;19.124;2023-03-26T07:03:11;12.40;99.90
44215;DHT22;29884;47.450;19.124;2023-03-26T07:05:40;12.60;99.90
44215;DHT22;29884;47.450;19.124;2023-03-26T07:08:06;12.80;99.80
44215;DHT22;29884;47.450;19.124;2023-03-26T07:10:32;12.90;99.00
44215;DHT22;29884;47.450;19.124;2023-03-26T07:12:58;12.90;98.20
44215;DHT22;29884;47.450;19.124;2023-03-26T07:15:23;12.90;98.30
44215;DHT22;29884;47.450;19.124;2023-03-26T07:17:49;13.00;97.90
44215;DHT22;29884;47.450;19.124;2023-03-26T07:20:15;13.10;97.90
44215;DHT22;29884;47.450;19.124;2023-03-26T07:22:41;13.10;97.20
44215;DHT22;29884;47.450;19.124;2023-03-26T07:25:07;13.30;96.80
44215;DHT22;29884;47.450;19.124;2023-03-26T07:27:54;13.20;96.70
44215;DHT22;29884;47.450;19.124;2023-03-26T07:36:20;13.20;97.70
44215;DHT22;29884;47.450;19.124;2023-03-26T07:41:44;13.30;97.10
44215;DHT22;29884;47.450;19.124;2023-03-26T07:44:33;13.40;97.50
44215;DHT22;29884;47.450;19.124;2023-03-26T07:47:31;13.30;97.70
44215;DHT22;29884;47.450;19.124;2023-03-26T07:49:57;13.70;97.60
44215;DHT22;29884;47.450;19.124;2023-03-26T07:52:24;14.00;97.50
44215;DHT22;29884;47.450;19.124;2023-03-26T07:54:50;13.90;97.80
44215;DHT22;29884;47.450;19.124;2023-03-26T08:00:17;13.40;97.30
44215;DHT22;29884;47.450;19.124;2023-03-26T08:05:28;13.90;98.00
44215;DHT22;29884;47.450;19.124;2023-03-26T08:22:12;14.20;94.80
44215;DHT22;29884;47.450;19.124;2023-03-26T08:27:38;14.60;94.40
44215;DHT22;29884;47.450;19.124;2023-03-26T08:30:18;14.40;93.90
44215;DHT22;29884;47.450;19.124;2023-03-26T08:33:03;14.30;94.70
44215;DHT22;29884;47.450;19.124;2023-03-26T08:35:35;14.20;94.40
44215;DHT22;29884;47.450;19.124;2023-03-26T08:38:16;14.20;94.10
44215;DHT22;29884;47.450;19.124;2023-03-26T09:03:55;14.50;92.00
44215;DHT22;29884;47.450;19.124;2023-03-26T09:14:44;15.30;87.90
44215;DHT22;29884;47.450;19.124;2023-03-26T09:28:42;16.00;84.10
44215;DHT22;29884;47.450;19.124;2023-03-26T09:55:32;16.20;74.70
44215;DHT22;29884;47.450;19.124;2023-03-26T09:58:38;16.40;74.00
44215;DHT22;29884;47.450;19.124;2023-03-26T10:01:52;16.00;74.70
44215;DHT22;29884;47.450;19.124;2023-03-26T10:04:30;16.20;76.80
44215;DHT22;29884;47.450;19.124;2023-03-26T10:19:11;16.00;74.90
44215;DHT22;29884;47.450;19.124;2023-03-26T10:33:16;14.30;98.50
44215;DHT22;29884;47.450;19.124;2023-03-26T10:35:51;13.20;99.90
44215;DHT22;29884;47.450;19.124;2023-03-26T10:41:20;11.90;99.90
44215;DHT22;29884;47.450;19.124;2023-03-26T10:44:03;11.70;99.90
44215;DHT22;29884;47.450;19.124;2023-03-26T10:47:04;11.70;99.90
44215;DHT22;29884;47.450;19.124;2023-03-26T10:50:03;11.80;99.90
44215;DHT22;29884;47.450;19.124;2023-03-26T10:53:24;12.00;99.90
44215;DHT22;29884;47.450;19.124;2023-03-26T10:56:22;12.10;99.90
44215;DHT22;29884;47.450;19.124;2023-03-26T10:58:50;12.50;99.90
44215;DHT22;29884;47.450;19.124;2023-03-26T11:12:21;13.30;99.90
44215;DHT22;29884;47.450;19.124;2023-03-26T11:23:36;13.30;99.90
44215;DHT22;29884;47.450;19.124;2023-03-26T11:26:21;13.30;99.90
44215;DHT22;29884;47.450;19.124;2023-03-26T11:32:04;13.40;99.90
44215;DHT22;29884;47.450;19.124;2023-03-26T11:34:48;13.60;99.90
44215;DHT22;29884;47.450;19.124;2023-03-26T11:37:22;13.70;99.90
44215;DHT22;29884;47.450;19.124;2023-03-26T11:39:53;13.70;99.90
44215;DHT22;29884;47.450;19.124;2023-03-26T11:42:22;13.70;99.90
44215;DHT22;29884;47.450;19.124;2023-03-26T11:45:12;13.80;99.90
44215;DHT22;29884;47.450;19.124;2023-03-26T11:47:49;14.00;99.90
44215;DHT22;29884;47.450;19.124;2023-03-26T11:50:26;14.50;99.90
44215;DHT22;29884;47.450;19.124;2023-03-26T11:53:00;14.90;99.90
44215;DHT22;29884;47.450;19.124;2023-03-26T11:55:27;15.00;99.90
44215;DHT22;29884;47.450;19.124;2023-03-26T11:57:56;15.20;99.90
44215;DHT22;29884;47.450;19.124;2023-03-26T12:00:23;15.30;99.90
44215;DHT22;29884;47.450;19.124;2023-03-26T12:02:55;15.40;99.90
44215;DHT22;29884;47.450;19.124;2023-03-26T12:05:23;15.40;99.50
44215;DHT22;29884;47.450;19.124;2023-03-26T12:07:57;15.10;99.90
44215;DHT22;29884;47.450;19.124;2023-03-26T12:10:32;14.90;97.90
44215;DHT22;29884;47.450;19.124;2023-03-26T12:13:02;15.10;99.30
44215;DHT22;29884;47.450;19.124;2023-03-26T12:15:30;15.20;98.50
44215;DHT22;29884;47.450;19.124;2023-03-26T12:17:57;15.30;98.60
44215;DHT22;29884;47.450;19.124;2023-03-26T12:22:51;15.70;97.30
44215;DHT22;29884;47.450;19.124;2023-03-26T12:25:18;15.90;95.80
44215;DHT22;29884;47.450;19.124;2023-03-26T12:30:39;16.00;93.40
44215;DHT22;29884;47.450;19.124;2023-03-26T12:33:13;16.10;93.60
44215;DHT22;29884;47.450;19.124;2023-03-26T12:35:41;16.20;91.20
44215;DHT22;29884;47.450;19.124;2023-03-26T12:41:08;16.70;88.60
44215;DHT22;29884;47.450;19.124;2023-03-26T12:48:50;17.20;90.00
44215;DHT22;29884;47.450;19.124;2023-03-26T12:56:35;17.00;86.70
44215;DHT22;29884;47.450;19.124;2023-03-26T12:59:14;16.80;82.60
44215;DHT22;29884;47.450;19.124;2023-03-26T13:10:29;17.10;72.10
44215;DHT22;29884;47.450;19.124;2023-03-26T13:13:33;17.00;70.50
44215;DHT22;29884;47.450;19.124;2023-03-26T13:16:22;16.90;68.90
44215;DHT22;29884;47.450;19.124;2023-03-26T13:18:58;16.80;71.20
44215;DHT22;29884;47.450;19.124;2023-03-26T13:24:41;17.40;71.10
44215;DHT22;29884;47.450;19.124;2023-03-26T13:40:42;16.60;70.10
44215;DHT22;29884;47.450;19.124;2023-03-26T13:48:48;17.10;65.60
44215;DHT22;29884;47.450;19.124;2023-03-26T13:54:23;17.10;66.90
44215;DHT22;29884;47.450;19.124;2023-03-26T13:57:08;17.00;66.30
44215;DHT22;29884;47.450;19.124;2023-03-26T13:59:43;17.00;65.80
44215;DHT22;29884;47.450;19.124;2023-03-26T14:02:21;17.10;64.60
44215;DHT22;29884;47.450;19.124;2023-03-26T14:04:55;17.10;63.60
44215;DHT22;29884;47.450;19.124;2023-03-26T14:10:42;17.30;63.30
44215;DHT22;29884;47.450;19.124;2023-03-26T14:16:20;17.80;60.50
44215;DHT22;29884;47.450;19.124;2023-03-26T14:19:00;18.20;59.40
44215;DHT22;29884;47.450;19.124;2023-03-26T14:21:54;17.90;59.70
44215;DHT22;29884;47.450;19.124;2023-03-26T14:27:17;17.50;59.90
44215;DHT22;29884;47.450;19.124;2023-03-26T14:29:53;17.70;59.20
44215;DHT22;29884;47.450;19.124;2023-03-26T14:54:12;18.00;54.30
44215;DHT22;29884;47.450;19.124;2023-03-26T14:57:02;18.00;54.70
44215;DHT22;29884;47.450;19.124;2023-03-26T15:08:20;17.80;54.00
44215;DHT22;29884;47.450;19.124;2023-03-26T15:31:10;17.20;55.30
44215;DHT22;29884;47.450;19.124;2023-03-26T15:39:13;16.90;58.20
44215;DHT22;29884;47.450;19.124;2023-03-26T15:52:40;16.50;58.70
44215;DHT22;29884;47.450;19.124;2023-03-26T15:57:55;16.40;58.50
44215;DHT22;29884;47.450;19.124;2023-03-26T16:00:27;16.40;59.20
44215;DHT22;29884;47.450;19.124;2023-03-26T16:11:03;16.30;61.00
44215;DHT22;29884;47.450;19.124;2023-03-26T16:18:40;15.90;61.40
44215;DHT22;29884;47.450;19.124;2023-03-26T16:26:51;15.60;62.50
44215;DHT22;29884;47.450;19.124;2023-03-26T16:29:21;15.50;61.50
44215;DHT22;29884;47.450;19.124;2023-03-26T16:37:14;15.30;61.50
44215;DHT22;29884;47.450;19.124;2023-03-26T16:39:50;15.20;61.00
44215;DHT22;29884;47.450;19.124;2023-03-26T16:42:38;15.20;61.30
44215;DHT22;29884;47.450;19.124;2023-03-26T16:48:13;15.00;62.40
44215;DHT22;29884;47.450;19.124;2023-03-26T16:50:46;14.90;62.20
44215;DHT22;29884;47.450;19.124;2023-03-26T16:56:29;14.70;63.90
44215;DHT22;29884;47.450;19.124;2023-03-26T17:07:57;14.30;66.30
44215;DHT22;29884;47.450;19.124;2023-03-26T17:10:37;14.30;65.60
44215;DHT22;29884;47.450;19.124;2023-03-26T17:13:20;14.20;67.20
44215;DHT22;29884;47.450;19.124;2023-03-26T17:27:26;13.90;68.80
44215;DHT22;29884;47.450;19.124;2023-03-26T17:35:49;13.80;68.90
44215;DHT22;29884;47.450;19.124;2023-03-26T17:43:36;13.80;68.90
44215;DHT22;29884;47.450;19.124;2023-03-26T17:46:04;13.70;69.00
44215;DHT22;29884;47.450;19.124;2023-03-26T17:48:38;13.70;69.80
44215;DHT22;29884;47.450;19.124;2023-03-26T17:54:06;13.60;69.70
44215;DHT22;29884;47.450;19.124;2023-03-26T17:56:39;13.60;69.70
44215;DHT22;29884;47.450;19.124;2023-03-26T17:59:05;13.50;70.90
44215;DHT22;29884;47.450;19.124;2023-03-26T18:01:38;13.50;70.50
44215;DHT22;29884;47.450;19.124;2023-03-26T18:04:14;13.40;71.30
44215;DHT22;29884;47.450;19.124;2023-03-26T18:06:56;13.40;71.20
44215;DHT22;29884;47.450;19.124;2023-03-26T18:15:37;13.30;72.20
44215;DHT22;29884;47.450;19.124;2023-03-26T18:18:31;13.30;71.50
44215;DHT22;29884;47.450;19.124;2023-03-26T18:20:59;13.30;71.80
44215;DHT22;29884;47.450;19.124;2023-03-26T18:23:44;13.30;72.40
44215;DHT22;29884;47.450;19.124;2023-03-26T18:26:15;13.30;72.90
44215;DHT22;29884;47.450;19.124;2023-03-26T18:28:51;13.30;73.10
44215;DHT22;29884;47.450;19.124;2023-03-26T18:31:23;13.20;74.40
44215;DHT22;29884;47.450;19.124;2023-03-26T18:33:53;13.20;73.30
44215;DHT22;29884;47.450;19.124;2023-03-26T18:36:25;13.30;73.80
44215;DHT22;29884;47.450;19.124;2023-03-26T18:38:56;13.20;73.70
44215;DHT22;29884;47.450;19.124;2023-03-26T18:41:29;13.20;74.90
44215;DHT22;29884;47.450;19.124;2023-03-26T18:44:01;13.20;76.40
44215;DHT22;29884;47.450;19.124;2023-03-26T18:46:27;13.20;77.20
44215;DHT22;29884;47.450;19.124;2023-03-26T18:48:53;13.20;75.70
44215;DHT22;29884;47.450;19.124;2023-03-26T18:51:20;13.10;76.90
44215;DHT22;29884;47.450;19.124;2023-03-26T18:54:07;13.10;76.30
44215;DHT22;29884;47.450;19.124;2023-03-26T18:56:39;13.10;77.80
44215;DHT22;29884;47.450;19.124;2023-03-26T18:59:17;13.10;77.60
44215;DHT22;29884;47.450;19.124;2023-03-26T19:01:46;13.10;78.40
44215;DHT22;29884;47.450;19.124;2023-03-26T19:04:13;13.00;78.30
44215;DHT22;29884;47.450;19.124;2023-03-26T19:06:41;13.00;78.80
44215;DHT22;29884;47.450;19.124;2023-03-26T19:09:10;13.00;78.50
44215;DHT22;29884;47.450;19.124;2023-03-26T19:11:39;12.90;78.80
44215;DHT22;29884;47.450;19.124;2023-03-26T19:14:13;12.90;78.50
44215;DHT22;29884;47.450;19.124;2023-03-26T19:16:38;12.90;78.00
44215;DHT22;29884;47.450;19.124;2023-03-26T19:19:14;12.90;78.70
44215;DHT22;29884;47.450;19.124;2023-03-26T19:21:41;12.90;79.40
44215;DHT22;29884;47.450;19.124;2023-03-26T19:24:09;12.90;78.80
44215;DHT22;29884;47.450;19.124;2023-03-26T19:26:35;12.90;80.00
44215;DHT22;29884;47.450;19.124;2023-03-26T19:29:02;12.90;80.10
44215;DHT22;29884;47.450;19.124;2023-03-26T19:31:35;12.90;80.90
44215;DHT22;29884;47.450;19.124;2023-03-26T19:34:12;12.90;79.90
44215;DHT22;29884;47.450;19.124;2023-03-26T19:39:23;12.90;80.10
44215;DHT22;29884;47.450;19.124;2023-03-26T19:41:51;12.90;80.70
44215;DHT22;29884;47.450;19.124;2023-03-26T19:46:46;12.80;80.30
44215;DHT22;29884;47.450;19.124;2023-03-26T19:51:50;12.80;81.10
44215;DHT22;29884;47.450;19.124;2023-03-26T19:54:18;12.80;80.90
44215;DHT22;29884;47.450;19.124;2023-03-26T19:56:44;12.70;81.50
44215;DHT22;29884;47.450;19.124;2023-03-26T19:59:10;12.70;82.10
44215;DHT22;29884;47.450;19.124;2023-03-26T20:01:35;12.70;81.80
44215;DHT22;29884;47.450;19.124;2023-03-26T20:04:04;12.70;82.80
44215;DHT22;29884;47.450;19.124;2023-03-26T20:06:31;12.60;81.80
44215;DHT22;29884;47.450;19.124;2023-03-26T20:08:58;12.70;81.80
44215;DHT22;29884;47.450;19.124;2023-03-26T20:11:34;12.60;81.80
44215;DHT22;29884;47.450;19.124;2023-03-26T20:14:15;12.60;80.80
44215;DHT22;29884;47.450;19.124;2023-03-26T20:16:41;12.60;80.10
44215;DHT22;29884;47.450;19.124;2023-03-26T20:19:07;12.60;80.30
44215;DHT22;29884;47.450;19.124;2023-03-26T20:21:33;12.60;81.00
44215;DHT22;29884;47.450;19.124;2023-03-26T20:24:00;12.50;80.50
44215;DHT22;29884;47.450;19.124;2023-03-26T20:26:26;12.50;80.90
44215;DHT22;29884;47.450;19.124;2023-03-26T20:28:52;12.50;80.40
44215;DHT22;29884;47.450;19.124;2023-03-26T20:31:23;12.50;79.60
44215;DHT22;29884;47.450;19.124;2023-03-26T20:33:50;12.50;79.50
44215;DHT22;29884;47.450;19.124;2023-03-26T20:36:16;12.40;80.20
44215;DHT22;29884;47.450;19.124;2023-03-26T20:38:43;12.40;80.20
44215;DHT22;29884;47.450;19.124;2023-03-26T20:41:12;12.40;80.40
44215;DHT22;29884;47.450;19.124;2023-03-26T20:43:39;12.30;80.60
44215;DHT22;29884;47.450;19.124;2023-03-26T20:46:04;12.30;80.50
44215;DHT22;29884;47.450;19.124;2023-03-26T20:48:31;12.30;81.20
44215;DHT22;29884;47.450;19.124;2023-03-26T20:50:57;12.30;82.00
44215;DHT22;29884;47.450;19.124;2023-03-26T20:53:22;12.30;81.20
44215;DHT22;29884;47.450;19.124;2023-03-26T20:55:49;12.30;81.20
44215;DHT22;29884;47.450;19.124;2023-03-26T20:58:19;12.20;83.00
44215;DHT22;29884;47.450;19.124;2023-03-26T21:00:48;12.20;84.00
44215;DHT22;29884;47.450;19.124;2023-03-26T21:03:17;12.10;83.90
44215;DHT22;29884;47.450;19.124;2023-03-26T21:05:43;12.10;84.30
44215;DHT22;29884;47.450;19.124;2023-03-26T21:08:15;12.10;84.90
44215;DHT22;29884;47.450;19.124;2023-03-26T21:10:41;12.10;85.10
44215;DHT22;29884;47.450;19.124;2023-03-26T21:13:45;12.10;84.40
44215;DHT22;29884;47.450;19.124;2023-03-26T21:16:10;12.10;84.50
44215;DHT22;29884;47.450;19.124;2023-03-26T21:18:38;12.10;85.30
44215;DHT22;29884;47.450;19.124;2023-03-26T21:21:20;12.10;85.00
44215;DHT22;29884;47.450;19.124;2023-03-26T21:23:55;12.10;84.90
44215;DHT22;29884;47.450;19.124;2023-03-26T21:29:19;12.20;84.50
44215;DHT22;29884;47.450;19.124;2023-03-26T21:31:45;12.20;84.60
44215;DHT22;29884;47.450;19.124;2023-03-26T21:34:11;12.20;85.20
44215;DHT22;29884;47.450;19.124;2023-03-26T21:36:38;12.20;86.30
44215;DHT22;29884;47.450;19.124;2023-03-26T21:39:05;12.20;88.10
44215;DHT22;29884;47.450;19.124;2023-03-26T21:41:35;12.10;89.90
44215;DHT22;29884;47.450;19.124;2023-03-26T21:44:06;12.00;90.30
44215;DHT22;29884;47.450;19.124;2023-03-26T21:46:33;12.00;91.90
44215;DHT22;29884;47.450;19.124;2023-03-26T21:48:59;12.00;93.40
44215;DHT22;29884;47.450;19.124;2023-03-26T21:51:25;11.90;95.40
44215;DHT22;29884;47.450;19.124;2023-03-26T21:53:52;11.80;96.10
44215;DHT22;29884;47.450;19.124;2023-03-26T21:59:33;11.60;99.90
44215;DHT22;29884;47.450;19.124;2023-03-26T22:02:19;11.60;99.90
44215;DHT22;29884;47.450;19.124;2023-03-26T22:04:56;11.50;99.90